Time;durP1;ratioP1;P1;durP2;ratioP2;P2;SDS_P1;SDS_P2;PMS_P1;PMS_P2;Temp;Humidity;BMP_temperature;BMP_pressure;BME280_temperature;BME280_humidity;BME280_pressure;Samples;Min_cycle;Max_cycle;Signal;HPM_P1;HPM_P2
2022/11/27 00:01:17;;;;;;;0.10;0.10;;;;;;;;;;5065649;28;20043;-69
2022/11/27 00:03:43;;;;;;;0.20;0.20;;;;;;;;;;5082129;28;20040;-69
2022/11/27 00:06:11;;;;;;;0.10;0.10;;;;;;;;;;5049662;28;20017;-70
2022/11/27 00:08:36;;;;;;;0.10;0.10;;;;;;;;;;5061402;28;20032;-72
2022/11/27 00:11:09;;;;;;;0.10;0.10;;;;;;;;;;5069900;28;20494;-71
2022/11/27 00:13:35;;;;;;;0.30;0.30;;;;;;;;;;5069580;28;20031;-69
2022/11/27 00:16:01;;;;;;;0.20;0.20;;;;;;;;;;5070749;28;20028;-69
2022/11/27 00:18:26;;;;;;;0.10;0.10;;;;;;;;;;5072296;28;20503;-69
2022/11/27 00:20:52;;;;;;;0.10;0.10;;;;;;;;;;5073267;28;20033;-68
2022/11/27 00:23:17;;;;;;;0.10;0.10;;;;;;;;;;5072345;28;20028;-70
2022/11/27 00:25:52;;;;;;;0.20;0.20;;;;;;;;;;5073289;28;20463;-71
2022/11/27 00:28:18;;;;;;;0.10;0.10;;;;;;;;;;5071808;28;20479;-70
2022/11/27 00:30:43;;;;;;;0.10;0.10;;;;;;;;;;5072451;28;20043;-70
2022/11/27 00:33:08;;;;;;;1.02;0.95;;;;;;;;;;5073175;28;20016;-71
2022/11/27 00:35:34;;;;;;;0.17;0.17;;;;;;;;;;5072439;28;20028;-70
2022/11/27 00:37:59;;;;;;;0.90;0.90;;;;;;;;;;5073183;28;20099;-70
2022/11/27 00:40:25;;;;;;;0.40;0.40;;;;;;;;;;5072373;28;20036;-69
2022/11/27 00:42:50;;;;;;;0.20;0.20;;;;;;;;;;5073272;28;20029;-69
2022/11/27 00:45:16;;;;;;;0.10;0.10;;;;;;;;;;5072085;28;20056;-69
2022/11/27 00:47:41;;;;;;;0.40;0.40;;;;;;;;;;5073193;28;20442;-69
2022/11/27 00:50:07;;;;;;;0.20;0.20;;;;;;;;;;5071954;28;20032;-70
2022/11/27 00:52:32;;;;;;;0.20;0.20;;;;;;;;;;5073348;28;20488;-69
2022/11/27 00:54:58;;;;;;;0.10;0.10;;;;;;;;;;5072895;28;20388;-69
2022/11/27 00:57:24;;;;;;;0.20;0.20;;;;;;;;;;5072905;28;20031;-70
2022/11/27 00:59:50;;;;;;;0.35;0.25;;;;;;;;;;5055258;28;20036;-70
2022/11/27 01:02:16;;;;;;;0.75;0.75;;;;;;;;;;5061412;28;20039;-71
2022/11/27 01:04:44;;;;;;;0.10;0.10;;;;;;;;;;5070639;28;20024;-69
2022/11/27 01:07:09;;;;;;;0.40;0.40;;;;;;;;;;5072863;28;20476;-69
2022/11/27 01:09:34;;;;;;;0.20;0.20;;;;;;;;;;5072744;28;20043;-69
2022/11/27 01:12:00;;;;;;;0.10;0.10;;;;;;;;;;5072101;28;20126;-70
2022/11/27 01:14:25;;;;;;;0.30;0.30;;;;;;;;;;5071762;28;20021;-70
2022/11/27 01:16:51;;;;;;;0.10;0.10;;;;;;;;;;5072790;28;20168;-70
2022/11/27 01:19:16;;;;;;;0.15;0.15;;;;;;;;;;5072898;28;20090;-69
2022/11/27 01:21:42;;;;;;;0.20;0.20;;;;;;;;;;5072153;28;20040;-70
2022/11/27 01:24:09;;;;;;;0.65;0.63;;;;;;;;;;5073163;28;20525;-70
2022/11/27 01:26:34;;;;;;;0.10;0.10;;;;;;;;;;5072622;28;20091;-70
2022/11/27 01:29:00;;;;;;;0.10;0.10;;;;;;;;;;5071709;28;20064;-70
2022/11/27 01:31:27;;;;;;;0.13;0.13;;;;;;;;;;5072684;28;20055;-71
2022/11/27 01:33:54;;;;;;;0.20;0.20;;;;;;;;;;5072638;28;20028;-71
2022/11/27 01:36:19;;;;;;;0.20;0.20;;;;;;;;;;5070847;28;20035;-71
2022/11/27 01:38:45;;;;;;;0.20;0.20;;;;;;;;;;5072633;28;20116;-71
2022/11/27 01:41:21;;;;;;;0.15;0.15;;;;;;;;;;5072447;28;20028;-70
2022/11/27 01:43:48;;;;;;;0.10;0.10;;;;;;;;;;5074713;28;20032;-70
2022/11/27 01:46:20;;;;;;;0.10;0.10;;;;;;;;;;5075082;28;20476;-70
2022/11/27 01:48:46;;;;;;;0.10;0.10;;;;;;;;;;5058443;28;20115;-70
2022/11/27 01:51:11;;;;;;;0.20;0.20;;;;;;;;;;5075429;28;20574;-71
2022/11/27 01:53:37;;;;;;;0.10;0.10;;;;;;;;;;5076078;28;20032;-71
2022/11/27 01:56:04;;;;;;;0.20;0.20;;;;;;;;;;5074568;28;20040;-70
2022/11/27 01:58:30;;;;;;;0.20;0.20;;;;;;;;;;5074997;28;20039;-70
2022/11/27 02:00:56;;;;;;;0.20;0.20;;;;;;;;;;5075909;28;20040;-70
2022/11/27 02:03:22;;;;;;;0.22;0.22;;;;;;;;;;5074810;28;20032;-70
2022/11/27 02:05:47;;;;;;;0.10;0.10;;;;;;;;;;5075899;28;20039;-70
2022/11/27 02:08:14;;;;;;;0.10;0.10;;;;;;;;;;5075897;28;20025;-70
2022/11/27 02:10:39;;;;;;;0.10;0.10;;;;;;;;;;5075072;28;20036;-70
2022/11/27 02:13:08;;;;;;;0.10;0.10;;;;;;;;;;5076015;28;20383;-70
2022/11/27 02:15:36;;;;;;;0.10;0.10;;;;;;;;;;5074659;28;20115;-71
2022/11/27 02:18:08;;;;;;;0.10;0.10;;;;;;;;;;5075793;28;20537;-70
2022/11/27 02:20:36;;;;;;;0.20;0.20;;;;;;;;;;5074694;28;20032;-71
2022/11/27 02:23:05;;;;;;;0.13;0.13;;;;;;;;;;5074872;28;20039;-71
2022/11/27 02:25:30;;;;;;;0.10;0.10;;;;;;;;;;5075987;28;20052;-70
2022/11/27 02:28:14;;;;;;;0.17;0.17;;;;;;;;;;5074364;28;20062;-70
2022/11/27 02:30:48;;;;;;;0.10;0.10;;;;;;;;;;5074164;28;20040;-70
2022/11/27 02:33:16;;;;;;;0.20;0.20;;;;;;;;;;5075483;28;20033;-70
2022/11/27 02:36:05;;;;;;;0.10;0.10;;;;;;;;;;5073845;28;20085;-70
2022/11/27 02:38:33;;;;;;;0.10;0.10;;;;;;;;;;5074845;28;20422;-70
2022/11/27 02:41:05;;;;;;;0.10;0.10;;;;;;;;;;5075172;28;20041;-70
2022/11/27 02:43:38;;;;;;;0.10;0.10;;;;;;;;;;5075377;28;20051;-70
2022/11/27 02:46:05;;;;;;;0.10;0.10;;;;;;;;;;5075008;28;20028;-71
2022/11/27 02:48:33;;;;;;;0.10;0.10;;;;;;;;;;5075347;28;20056;-71
2022/11/27 02:50:59;;;;;;;0.10;0.10;;;;;;;;;;5073957;28;20029;-70
2022/11/27 02:53:26;;;;;;;0.10;0.10;;;;;;;;;;5074287;28;20039;-70
2022/11/27 02:55:52;;;;;;;0.10;0.10;;;;;;;;;;5074345;28;20427;-70
2022/11/27 02:58:20;;;;;;;0.10;0.10;;;;;;;;;;5073750;28;20044;-70
2022/11/27 03:00:46;;;;;;;0.20;0.20;;;;;;;;;;5074631;28;20166;-70
2022/11/27 03:03:13;;;;;;;0.10;0.10;;;;;;;;;;5073777;28;20111;-70
2022/11/27 03:05:41;;;;;;;0.10;0.10;;;;;;;;;;5074157;28;20020;-70
2022/11/27 03:08:16;;;;;;;0.10;0.10;;;;;;;;;;5074739;28;20031;-70
2022/11/27 03:11:02;;;;;;;0.13;0.13;;;;;;;;;;5074754;28;20032;-70
2022/11/27 03:13:28;;;;;;;0.20;0.20;;;;;;;;;;5073424;28;20025;-70
2022/11/27 03:16:13;;;;;;;0.10;0.10;;;;;;;;;;5075686;28;20074;-72
2022/11/27 03:18:56;;;;;;;0.10;0.10;;;;;;;;;;5093313;28;20062;-70
2022/11/27 03:21:24;;;;;;;0.10;0.10;;;;;;;;;;5092047;28;20032;-72
2022/11/27 03:23:50;;;;;;;0.20;0.20;;;;;;;;;;5089577;28;20065;-70
2022/11/27 03:26:18;;;;;;;0.13;0.13;;;;;;;;;;5085895;28;20021;-71
2022/11/27 03:28:44;;;;;;;0.20;0.20;;;;;;;;;;5074189;28;20035;-70
2022/11/27 03:31:13;;;;;;;0.20;0.20;;;;;;;;;;5073276;28;20028;-70
2022/11/27 03:33:39;;;;;;;0.10;0.10;;;;;;;;;;5074161;28;20021;-69
2022/11/27 03:36:14;;;;;;;0.73;0.73;;;;;;;;;;5074179;28;20028;-69
2022/11/27 03:38:40;;;;;;;0.10;0.10;;;;;;;;;;5056049;28;20040;-71
2022/11/27 03:41:25;;;;;;;0.10;0.10;;;;;;;;;;5072892;28;20033;-69
2022/11/27 03:44:06;;;;;;;0.10;0.10;;;;;;;;;;5073606;28;20040;-70
2022/11/27 03:46:34;;;;;;;0.10;0.10;;;;;;;;;;5074037;28;20078;-70
2022/11/27 03:49:20;;;;;;;0.10;0.10;;;;;;;;;;5073930;28;20029;-69
2022/11/27 03:52:00;;;;;;;0.13;0.13;;;;;;;;;;5073473;28;20497;-69
2022/11/27 03:54:33;;;;;;;0.20;0.20;;;;;;;;;;5073677;28;20028;-70
2022/11/27 03:57:04;;;;;;;0.15;0.15;;;;;;;;;;5073673;28;20353;-69
2022/11/27 03:59:33;;;;;;;0.20;0.20;;;;;;;;;;5072889;28;20040;-69
2022/11/27 04:01:58;;;;;;;0.10;0.10;;;;;;;;;;5072558;28;20036;-69
2022/11/27 04:04:23;;;;;;;0.20;0.20;;;;;;;;;;5069143;28;20531;-69
2022/11/27 04:06:49;;;;;;;0.10;0.10;;;;;;;;;;5069204;28;20504;-69
2022/11/27 04:09:14;;;;;;;0.10;0.10;;;;;;;;;;5069929;28;20028;-70
2022/11/27 04:11:40;;;;;;;0.17;0.17;;;;;;;;;;5069498;28;20025;-69
2022/11/27 04:14:05;;;;;;;0.15;0.15;;;;;;;;;;5069709;28;20471;-70
2022/11/27 04:16:31;;;;;;;0.17;0.17;;;;;;;;;;5068853;28;20033;-70
2022/11/27 04:18:56;;;;;;;0.15;0.15;;;;;;;;;;5069831;28;20012;-70
2022/11/27 04:21:22;;;;;;;0.10;0.10;;;;;;;;;;5070206;28;20036;-70
2022/11/27 04:23:47;;;;;;;0.10;0.10;;;;;;;;;;5069521;28;20040;-69
2022/11/27 04:26:12;;;;;;;0.10;0.10;;;;;;;;;;5069856;28;20056;-73
2022/11/27 04:28:38;;;;;;;0.10;0.10;;;;;;;;;;5069526;28;20112;-70
2022/11/27 04:31:03;;;;;;;0.20;0.20;;;;;;;;;;5069569;28;20391;-70
2022/11/27 04:33:29;;;;;;;0.10;0.10;;;;;;;;;;5068786;28;20032;-71
2022/11/27 04:35:54;;;;;;;0.17;0.17;;;;;;;;;;5069753;28;20086;-70
2022/11/27 04:38:20;;;;;;;0.10;0.10;;;;;;;;;;5068853;28;20028;-72
2022/11/27 04:40:46;;;;;;;0.40;0.40;;;;;;;;;;5068336;28;20032;-71
2022/11/27 04:43:11;;;;;;;0.20;0.20;;;;;;;;;;5069172;28;20036;-70
2022/11/27 04:45:37;;;;;;;0.10;0.10;;;;;;;;;;5051592;28;20483;-70
2022/11/27 04:48:03;;;;;;;0.10;0.10;;;;;;;;;;5069432;28;20032;-75
2022/11/27 04:50:28;;;;;;;0.10;0.10;;;;;;;;;;5051461;28;20119;-72
2022/11/27 04:52:54;;;;;;;0.20;0.20;;;;;;;;;;5068642;28;20039;-70
2022/11/27 04:55:19;;;;;;;0.17;0.17;;;;;;;;;;5068843;28;20124;-70
2022/11/27 04:57:45;;;;;;;0.10;0.10;;;;;;;;;;5068844;28;20601;-70
2022/11/27 05:00:10;;;;;;;0.10;0.10;;;;;;;;;;5068257;28;20028;-71
2022/11/27 05:02:36;;;;;;;0.10;0.10;;;;;;;;;;5067882;28;20491;-70
2022/11/27 05:05:01;;;;;;;0.10;0.10;;;;;;;;;;5068496;28;20029;-71
2022/11/27 05:07:27;;;;;;;0.10;0.10;;;;;;;;;;5069247;28;20041;-71
2022/11/27 05:09:52;;;;;;;0.10;0.10;;;;;;;;;;5068762;28;20024;-70
2022/11/27 05:12:18;;;;;;;2.22;0.95;;;;;;;;;;5067378;28;20119;-71
2022/11/27 05:14:43;;;;;;;0.10;0.10;;;;;;;;;;5054335;28;20107;-71
2022/11/27 05:17:09;;;;;;;0.10;0.10;;;;;;;;;;5064521;28;20438;-71
2022/11/27 05:19:34;;;;;;;0.10;0.10;;;;;;;;;;5063816;28;20025;-71
2022/11/27 05:22:00;;;;;;;0.10;0.10;;;;;;;;;;5068764;28;20080;-69
2022/11/27 05:24:27;;;;;;;0.10;0.10;;;;;;;;;;5064051;28;20021;-69
2022/11/27 05:26:52;;;;;;;0.80;0.73;;;;;;;;;;5034429;28;20082;-71
2022/11/27 05:29:18;;;;;;;0.10;0.10;;;;;;;;;;5051804;28;20419;-70
2022/11/27 05:31:44;;;;;;;0.20;0.20;;;;;;;;;;5034739;28;20422;-70
2022/11/27 05:34:09;;;;;;;0.10;0.10;;;;;;;;;;5051730;28;20110;-71
2022/11/27 05:36:35;;;;;;;5.57;0.85;;;;;;;;;;5053084;28;20033;-70
2022/11/27 05:39:01;;;;;;;0.20;0.20;;;;;;;;;;5051526;28;20029;-69
2022/11/27 05:41:27;;;;;;;0.10;0.10;;;;;;;;;;5071994;28;20040;-70
2022/11/27 05:43:52;;;;;;;0.10;0.10;;;;;;;;;;5071895;28;20025;-70
2022/11/27 05:46:21;;;;;;;0.10;0.10;;;;;;;;;;5070812;28;20570;-72
2022/11/27 05:48:47;;;;;;;0.10;0.10;;;;;;;;;;5071048;28;20040;-71
2022/11/27 05:51:12;;;;;;;0.25;0.25;;;;;;;;;;5072552;28;20025;-69
2022/11/27 05:53:38;;;;;;;0.20;0.20;;;;;;;;;;5069931;28;20074;-69
2022/11/27 05:56:12;;;;;;;0.10;0.10;;;;;;;;;;5070953;28;20084;-71
2022/11/27 05:58:38;;;;;;;0.30;0.22;;;;;;;;;;5054064;28;20525;-71
2022/11/27 06:01:04;;;;;;;1.27;1.05;;;;;;;;;;5070029;28;20123;-69
2022/11/27 06:03:30;;;;;;;0.15;0.15;;;;;;;;;;5070759;28;20108;-71
2022/11/27 06:05:55;;;;;;;0.10;0.10;;;;;;;;;;5071656;28;20357;-70
2022/11/27 06:08:21;;;;;;;0.35;0.35;;;;;;;;;;5072035;28;20048;-71
2022/11/27 06:10:47;;;;;;;0.10;0.10;;;;;;;;;;5071650;28;20127;-71
2022/11/27 06:13:12;;;;;;;0.10;0.10;;;;;;;;;;5071846;28;20020;-69
2022/11/27 06:15:38;;;;;;;0.10;0.10;;;;;;;;;;5071837;28;20020;-70
2022/11/27 06:18:04;;;;;;;0.30;0.30;;;;;;;;;;5072155;28;20032;-70
2022/11/27 06:20:29;;;;;;;0.10;0.10;;;;;;;;;;5071627;28;20032;-71
2022/11/27 06:22:55;;;;;;;0.20;0.20;;;;;;;;;;5070001;28;20032;-70
2022/11/27 06:25:21;;;;;;;0.10;0.10;;;;;;;;;;5071594;28;20012;-70
2022/11/27 06:27:47;;;;;;;0.20;0.20;;;;;;;;;;5071224;28;20039;-71
2022/11/27 06:30:12;;;;;;;0.20;0.20;;;;;;;;;;5071703;28;20368;-69
2022/11/27 06:32:37;;;;;;;0.10;0.10;;;;;;;;;;5069909;28;20068;-70
2022/11/27 06:35:03;;;;;;;0.17;0.17;;;;;;;;;;5070819;28;20025;-70
2022/11/27 06:37:29;;;;;;;0.10;0.10;;;;;;;;;;5070386;28;20020;-70
2022/11/27 06:39:54;;;;;;;0.10;0.10;;;;;;;;;;5071772;28;20048;-70
2022/11/27 06:42:20;;;;;;;0.10;0.10;;;;;;;;;;5070420;28;20051;-70
2022/11/27 06:44:46;;;;;;;0.10;0.10;;;;;;;;;;5071379;28;20028;-70
2022/11/27 06:47:11;;;;;;;0.17;0.17;;;;;;;;;;5071650;28;20020;-73
2022/11/27 06:49:36;;;;;;;0.20;0.20;;;;;;;;;;5071358;28;20024;-75
2022/11/27 06:52:02;;;;;;;0.25;0.25;;;;;;;;;;5070998;28;20399;-70
2022/11/27 06:54:27;;;;;;;0.20;0.20;;;;;;;;;;5069829;28;20028;-70
2022/11/27 06:56:53;;;;;;;0.15;0.15;;;;;;;;;;5070237;28;20468;-73
2022/11/27 06:59:18;;;;;;;0.10;0.10;;;;;;;;;;5069795;28;20029;-71
2022/11/27 07:01:44;;;;;;;0.15;0.15;;;;;;;;;;5069486;28;20041;-69
2022/11/27 07:04:10;;;;;;;0.10;0.10;;;;;;;;;;5071570;28;20036;-70
2022/11/27 07:06:36;;;;;;;0.17;0.17;;;;;;;;;;5070506;28;20353;-70
2022/11/27 07:09:01;;;;;;;0.10;0.10;;;;;;;;;;5070953;28;20028;-70
2022/11/27 07:11:28;;;;;;;0.10;0.10;;;;;;;;;;5070730;28;20488;-74
2022/11/27 07:13:54;;;;;;;0.20;0.20;;;;;;;;;;5053419;28;20033;-76
2022/11/27 07:16:20;;;;;;;0.20;0.20;;;;;;;;;;5071084;28;20376;-70
2022/11/27 07:18:47;;;;;;;0.17;0.17;;;;;;;;;;5070818;28;20028;-72
2022/11/27 07:21:13;;;;;;;1.30;1.30;;;;;;;;;;5070101;28;20467;-70
2022/11/27 07:23:39;;;;;;;0.10;0.10;;;;;;;;;;5070770;28;20086;-70
2022/11/27 07:26:05;;;;;;;0.10;0.10;;;;;;;;;;5070725;28;20119;-70
2022/11/27 07:28:31;;;;;;;0.10;0.10;;;;;;;;;;5070584;28;20028;-70
2022/11/27 07:30:57;;;;;;;0.10;0.10;;;;;;;;;;5069437;28;20059;-71
2022/11/27 07:33:23;;;;;;;0.10;0.10;;;;;;;;;;5070528;28;20032;-71
2022/11/27 07:35:48;;;;;;;1.02;1.02;;;;;;;;;;5069563;28;20074;-71
2022/11/27 07:38:14;;;;;;;0.20;0.20;;;;;;;;;;5070528;28;20507;-69
2022/11/27 07:40:39;;;;;;;0.10;0.10;;;;;;;;;;5068827;28;20052;-70
2022/11/27 07:43:05;;;;;;;0.20;0.20;;;;;;;;;;5070136;28;20020;-70
2022/11/27 07:45:30;;;;;;;0.10;0.10;;;;;;;;;;5068462;28;20074;-70
2022/11/27 07:47:55;;;;;;;0.10;0.10;;;;;;;;;;5068656;28;20078;-69
2022/11/27 07:50:21;;;;;;;2.50;2.30;;;;;;;;;;5070250;28;20028;-70
2022/11/27 07:52:46;;;;;;;0.10;0.10;;;;;;;;;;5068646;28;20025;-69
2022/11/27 07:55:12;;;;;;;0.30;0.30;;;;;;;;;;5069274;28;20049;-69
2022/11/27 07:57:38;;;;;;;0.17;0.17;;;;;;;;;;5069535;28;20484;-70
2022/11/27 08:00:04;;;;;;;0.10;0.10;;;;;;;;;;5070132;28;20043;-70
2022/11/27 08:02:29;;;;;;;0.10;0.10;;;;;;;;;;5068694;28;20040;-69
2022/11/27 08:04:55;;;;;;;0.10;0.10;;;;;;;;;;5070057;28;20036;-69
2022/11/27 08:07:25;;;;;;;0.10;0.10;;;;;;;;;;5068684;28;20060;-68
2022/11/27 08:09:50;;;;;;;0.30;0.30;;;;;;;;;;5069712;28;20033;-69
2022/11/27 08:12:16;;;;;;;0.20;0.20;;;;;;;;;;5067343;28;20097;-70
2022/11/27 08:14:41;;;;;;;0.63;0.63;;;;;;;;;;5069885;28;20478;-73
2022/11/27 08:17:08;;;;;;;0.10;0.10;;;;;;;;;;5069689;28;20024;-69
2022/11/27 08:19:33;;;;;;;0.30;0.30;;;;;;;;;;5069719;28;20054;-69
2022/11/27 08:21:59;;;;;;;0.10;0.10;;;;;;;;;;5068494;28;20028;-69
2022/11/27 08:24:24;;;;;;;0.10;0.10;;;;;;;;;;5069476;28;20051;-68
2022/11/27 08:26:51;;;;;;;0.93;0.80;;;;;;;;;;5069777;28;20026;-67
2022/11/27 08:29:16;;;;;;;0.10;0.10;;;;;;;;;;5068179;28;20071;-70
2022/11/27 08:31:41;;;;;;;0.28;0.28;;;;;;;;;;5069540;28;20056;-69
2022/11/27 08:34:07;;;;;;;0.20;0.20;;;;;;;;;;5068417;28;20036;-70
2022/11/27 08:36:32;;;;;;;2.92;0.55;;;;;;;;;;5068558;28;20050;-68
2022/11/27 08:38:58;;;;;;;0.20;0.20;;;;;;;;;;5069486;28;20038;-69
2022/11/27 08:41:23;;;;;;;0.30;0.30;;;;;;;;;;5051369;28;20029;-70
2022/11/27 08:43:49;;;;;;;0.10;0.10;;;;;;;;;;5069244;28;20032;-69
2022/11/27 08:46:14;;;;;;;0.17;0.17;;;;;;;;;;5068961;28;20039;-72
2022/11/27 08:48:40;;;;;;;0.10;0.10;;;;;;;;;;5069619;28;20028;-69
2022/11/27 08:51:07;;;;;;;0.10;0.10;;;;;;;;;;5069244;28;20506;-68
2022/11/27 08:53:33;;;;;;;0.10;0.10;;;;;;;;;;5069910;28;20506;-70
2022/11/27 08:56:08;;;;;;;1.35;0.65;;;;;;;;;;5073721;28;20056;-69
2022/11/27 08:58:34;;;;;;;0.17;0.17;;;;;;;;;;5072677;28;20484;-71
2022/11/27 09:01:05;;;;;;;0.17;0.17;;;;;;;;;;5074205;28;20068;-69
2022/11/27 09:03:31;;;;;;;0.73;0.43;;;;;;;;;;5072942;28;20382;-69
2022/11/27 09:05:56;;;;;;;0.10;0.10;;;;;;;;;;5071965;28;20028;-76
2022/11/27 09:08:21;;;;;;;1.55;0.47;;;;;;;;;;5063911;28;20078;-76
2022/11/27 09:10:47;;;;;;;1.38;0.88;;;;;;;;;;5065115;28;20059;-75
2022/11/27 09:13:12;;;;;;;2.30;1.50;;;;;;;;;;5072987;28;20082;-76
2022/11/27 09:15:38;;;;;;;0.10;0.10;;;;;;;;;;5072040;28;20074;-77
2022/11/27 09:18:03;;;;;;;0.30;0.30;;;;;;;;;;5073195;28;20388;-76
2022/11/27 09:20:28;;;;;;;0.63;0.40;;;;;;;;;;5071675;28;20482;-76
2022/11/27 09:22:54;;;;;;;0.10;0.10;;;;;;;;;;5073234;28;20467;-76
2022/11/27 09:25:19;;;;;;;0.45;0.45;;;;;;;;;;5069706;28;20093;-76
2022/11/27 09:27:45;;;;;;;0.80;0.80;;;;;;;;;;5072497;28;20025;-77
2022/11/27 09:30:10;;;;;;;0.10;0.10;;;;;;;;;;5072476;28;20025;-76
2022/11/27 09:32:36;;;;;;;0.40;0.30;;;;;;;;;;5062947;28;20576;-75
2022/11/27 09:35:02;;;;;;;0.30;0.30;;;;;;;;;;5062209;28;20479;-76
2022/11/27 09:37:27;;;;;;;0.17;0.17;;;;;;;;;;5064679;28;20051;-76
2022/11/27 09:39:54;;;;;;;0.30;0.30;;;;;;;;;;5059599;28;20441;-75
2022/11/27 09:42:34;;;;;;;0.13;0.13;;;;;;;;;;5060863;28;20468;-76
2022/11/27 09:45:01;;;;;;;0.38;0.38;;;;;;;;;;5059855;28;20028;-74
2022/11/27 09:47:27;;;;;;;0.45;0.45;;;;;;;;;;5061376;28;20542;-74
2022/11/27 09:49:58;;;;;;;0.20;0.20;;;;;;;;;;5058043;28;20024;-76
2022/11/27 09:52:31;;;;;;;2.40;1.45;;;;;;;;;;5062860;28;20037;-76
2022/11/27 09:55:01;;;;;;;0.10;0.10;;;;;;;;;;5069848;28;20128;-76
2022/11/27 09:57:29;;;;;;;0.20;0.20;;;;;;;;;;5063959;28;20625;-75
2022/11/27 09:59:57;;;;;;;0.20;0.20;;;;;;;;;;5091569;28;20407;-77
2022/11/27 10:02:30;;;;;;;0.10;0.10;;;;;;;;;;5065962;28;20040;-76
2022/11/27 10:04:58;;;;;;;0.20;0.20;;;;;;;;;;5049960;28;20025;-76
2022/11/27 10:07:23;;;;;;;3.47;3.28;;;;;;;;;;5050084;28;20033;-75
2022/11/27 10:10:04;;;;;;;0.20;0.20;;;;;;;;;;5052929;28;20040;-75
2022/11/27 10:12:48;;;;;;;0.30;0.30;;;;;;;;;;5063943;28;20110;-77
2022/11/27 10:15:26;;;;;;;0.88;0.60;;;;;;;;;;5062687;28;20037;-78
2022/11/27 10:18:13;;;;;;;0.57;0.47;;;;;;;;;;5057132;28;20629;-75
2022/11/27 10:20:45;;;;;;;0.10;0.10;;;;;;;;;;5056471;28;20036;-76
2022/11/27 10:23:14;;;;;;;0.20;0.20;;;;;;;;;;5069979;28;20395;-75
2022/11/27 10:25:50;;;;;;;0.20;0.20;;;;;;;;;;5069435;28;20024;-75
2022/11/27 10:28:30;;;;;;;0.50;0.50;;;;;;;;;;5064347;28;20052;-76
2022/11/27 10:31:07;;;;;;;0.20;0.20;;;;;;;;;;5069965;28;20119;-75
2022/11/27 10:33:42;;;;;;;0.43;0.40;;;;;;;;;;5068804;28;20039;-75
2022/11/27 10:36:15;;;;;;;0.17;0.17;;;;;;;;;;5070295;28;20060;-76
2022/11/27 10:38:42;;;;;;;0.15;0.15;;;;;;;;;;5069580;28;20962;-76
2022/11/27 10:41:08;;;;;;;0.20;0.20;;;;;;;;;;5069529;28;20029;-76
2022/11/27 10:43:34;;;;;;;0.20;0.20;;;;;;;;;;5066568;28;20887;-76
2022/11/27 10:46:09;;;;;;;0.20;0.20;;;;;;;;;;5069382;28;20071;-76
2022/11/27 10:48:34;;;;;;;0.20;0.20;;;;;;;;;;5069037;28;20526;-76
2022/11/27 10:51:00;;;;;;;0.20;0.20;;;;;;;;;;5068519;28;20040;-76
2022/11/27 10:53:27;;;;;;;0.30;0.30;;;;;;;;;;5068158;28;20094;-76
2022/11/27 10:55:53;;;;;;;0.38;0.38;;;;;;;;;;5067002;28;20120;-76
2022/11/27 10:58:22;;;;;;;0.20;0.20;;;;;;;;;;5069536;28;20408;-76
2022/11/27 11:00:58;;;;;;;0.30;0.30;;;;;;;;;;5069380;28;20044;-76
2022/11/27 11:03:24;;;;;;;0.20;0.20;;;;;;;;;;5068040;28;20506;-76
2022/11/27 11:05:57;;;;;;;0.22;0.22;;;;;;;;;;5066840;28;20024;-77
2022/11/27 11:08:24;;;;;;;0.38;0.38;;;;;;;;;;5069505;28;20028;-76
2022/11/27 11:10:52;;;;;;;0.20;0.20;;;;;;;;;;5069050;28;20028;-75
2022/11/27 11:13:19;;;;;;;0.20;0.20;;;;;;;;;;5069160;28;20386;-75
2022/11/27 11:15:48;;;;;;;0.38;0.38;;;;;;;;;;5066854;28;20075;-76
2022/11/27 11:18:18;;;;;;;0.38;0.38;;;;;;;;;;5068614;28;20025;-75
2022/11/27 11:20:46;;;;;;;0.20;0.20;;;;;;;;;;5068499;28;20031;-77
2022/11/27 11:23:24;;;;;;;0.30;0.30;;;;;;;;;;5067882;28;20036;-76
2022/11/27 11:25:54;;;;;;;0.45;0.45;;;;;;;;;;5068429;28;20032;-75
2022/11/27 11:28:20;;;;;;;0.25;0.25;;;;;;;;;;5068568;28;20111;-76
2022/11/27 11:30:57;;;;;;;0.20;0.20;;;;;;;;;;5066205;28;20074;-76
2022/11/27 11:33:22;;;;;;;0.30;0.30;;;;;;;;;;5068574;28;20053;-75
2022/11/27 11:35:53;;;;;;;0.30;0.30;;;;;;;;;;5067105;28;20032;-76
2022/11/27 11:38:22;;;;;;;0.20;0.20;;;;;;;;;;5067093;28;20021;-76
2022/11/27 11:41:01;;;;;;;0.20;0.20;;;;;;;;;;5068481;28;20043;-76
2022/11/27 11:43:32;;;;;;;0.38;0.38;;;;;;;;;;5067803;28;20033;-74
2022/11/27 11:46:24;;;;;;;1.83;1.75;;;;;;;;;;5068213;28;20093;-74
2022/11/27 11:48:54;;;;;;;1.33;1.33;;;;;;;;;;5065891;28;20036;-75
2022/11/27 11:51:31;;;;;;;0.35;0.35;;;;;;;;;;5059355;28;20039;-75
2022/11/27 11:54:20;;;;;;;0.20;0.20;;;;;;;;;;5053484;28;20146;-75
2022/11/27 11:56:51;;;;;;;0.90;0.90;;;;;;;;;;5077938;28;20037;-75
2022/11/27 11:59:24;;;;;;;0.30;0.30;;;;;;;;;;5057734;28;20047;-76
2022/11/27 12:01:59;;;;;;;0.20;0.20;;;;;;;;;;5058376;28;20041;-74
2022/11/27 12:04:44;;;;;;;0.20;0.20;;;;;;;;;;5057631;28;20136;-74
2022/11/27 12:07:09;;;;;;;0.20;0.20;;;;;;;;;;5058401;28;20109;-74
2022/11/27 12:09:50;;;;;;;0.20;0.20;;;;;;;;;;5053534;28;20092;-75
2022/11/27 12:12:45;;;;;;;0.30;0.30;;;;;;;;;;5080405;28;20032;-75
2022/11/27 12:15:10;;;;;;;0.30;0.30;;;;;;;;;;5053615;28;20090;-75
2022/11/27 12:17:53;;;;;;;0.20;0.20;;;;;;;;;;5056195;28;20028;-76
2022/11/27 12:20:20;;;;;;;0.30;0.30;;;;;;;;;;5062900;28;20352;-74
2022/11/27 12:22:59;;;;;;;0.20;0.20;;;;;;;;;;5063338;28;20033;-75
2022/11/27 12:25:40;;;;;;;0.20;0.20;;;;;;;;;;5065202;28;20024;-75
2022/11/27 12:28:14;;;;;;;0.20;0.20;;;;;;;;;;5062950;28;20111;-77
2022/11/27 12:30:39;;;;;;;0.20;0.20;;;;;;;;;;5044453;28;20052;-77
2022/11/27 12:33:05;;;;;;;0.40;0.40;;;;;;;;;;5062354;28;20055;-75
2022/11/27 12:35:32;;;;;;;0.20;0.20;;;;;;;;;;5047592;28;20025;-75
2022/11/27 12:38:00;;;;;;;0.20;0.20;;;;;;;;;;5052991;28;20031;-76
2022/11/27 12:40:26;;;;;;;0.20;0.20;;;;;;;;;;5068153;28;20029;-76
2022/11/27 12:42:58;;;;;;;0.30;0.30;;;;;;;;;;5065246;28;20044;-75
2022/11/27 12:45:30;;;;;;;0.20;0.20;;;;;;;;;;5067598;28;20036;-75
2022/11/27 12:47:57;;;;;;;0.20;0.20;;;;;;;;;;5068645;28;20055;-75
2022/11/27 12:50:24;;;;;;;0.20;0.20;;;;;;;;;;5068161;28;20082;-75
2022/11/27 12:53:04;;;;;;;0.20;0.20;;;;;;;;;;5068120;28;20056;-76
2022/11/27 12:55:29;;;;;;;;;;;;;;;;;;5069197;28;20048;-75
2022/11/27 12:58:06;;;;;;;0.20;0.20;;;;;;;;;;5069726;28;19912;-74
2022/11/27 13:00:33;;;;;;;0.20;0.20;;;;;;;;;;5065357;28;20723;-75
2022/11/27 13:03:10;;;;;;;0.30;0.30;;;;;;;;;;5063467;28;20079;-75
2022/11/27 13:05:39;;;;;;;0.20;0.20;;;;;;;;;;5066697;28;20020;-75
2022/11/27 13:08:08;;;;;;;0.28;0.28;;;;;;;;;;5060959;28;20029;-76
2022/11/27 13:10:42;;;;;;;0.68;0.47;;;;;;;;;;5061448;28;20023;-77
2022/11/27 13:13:13;;;;;;;0.20;0.20;;;;;;;;;;5068849;28;20028;-78
2022/11/27 13:15:45;;;;;;;0.20;0.20;;;;;;;;;;5066113;28;20060;-77
2022/11/27 13:18:16;;;;;;;1.55;0.52;;;;;;;;;;5068833;28;20033;-77
2022/11/27 13:20:42;;;;;;;0.93;0.57;;;;;;;;;;5068841;28;20035;-76
2022/11/27 13:23:08;;;;;;;0.20;0.20;;;;;;;;;;5067940;28;20036;-76
2022/11/27 13:25:36;;;;;;;0.20;0.20;;;;;;;;;;5068701;28;20027;-75
2022/11/27 13:28:02;;;;;;;0.20;0.20;;;;;;;;;;5067322;28;20028;-76
2022/11/27 13:30:30;;;;;;;0.20;0.20;;;;;;;;;;5068931;28;20396;-75
2022/11/27 13:32:58;;;;;;;0.20;0.20;;;;;;;;;;5068995;28;20054;-75
2022/11/27 13:35:35;;;;;;;0.20;0.20;;;;;;;;;;5067093;28;20029;-75
2022/11/27 13:38:17;;;;;;;0.20;0.20;;;;;;;;;;5068218;28;20035;-75
2022/11/27 13:40:45;;;;;;;0.38;0.38;;;;;;;;;;5072456;28;20540;-75
2022/11/27 13:43:23;;;;;;;0.35;0.35;;;;;;;;;;5070264;28;20039;-75
2022/11/27 13:45:49;;;;;;;0.40;0.40;;;;;;;;;;5072378;28;20016;-75
2022/11/27 13:48:40;;;;;;;0.20;0.20;;;;;;;;;;5066863;28;20024;-74
2022/11/27 13:51:08;;;;;;;0.22;0.22;;;;;;;;;;5059214;28;20041;-75
2022/11/27 13:53:37;;;;;;;0.30;0.30;;;;;;;;;;5086776;28;20021;-76
2022/11/27 13:56:03;;;;;;;0.30;0.30;;;;;;;;;;5061215;28;20546;-76
2022/11/27 13:58:29;;;;;;;0.20;0.20;;;;;;;;;;5071524;28;20035;-75
2022/11/27 14:00:55;;;;;;;0.45;0.45;;;;;;;;;;5071578;28;20403;-76
2022/11/27 14:03:24;;;;;;;0.20;0.20;;;;;;;;;;5072341;28;20379;-76
2022/11/27 14:05:50;;;;;;;0.30;0.30;;;;;;;;;;5072319;28;20029;-76
2022/11/27 14:08:18;;;;;;;1.15;0.50;;;;;;;;;;5072485;28;20024;-75
2022/11/27 14:10:49;;;;;;;1.25;0.77;;;;;;;;;;5071606;28;20032;-77
2022/11/27 14:13:15;;;;;;;0.20;0.20;;;;;;;;;;5070675;28;20032;-75
2022/11/27 14:15:40;;;;;;;2.90;1.63;;;;;;;;;;5068413;28;20033;-76
2022/11/27 14:18:09;;;;;;;0.20;0.20;;;;;;;;;;5069947;28;20104;-76
2022/11/27 14:20:36;;;;;;;0.32;0.32;;;;;;;;;;5068756;28;20070;-75
2022/11/27 14:23:02;;;;;;;1.02;0.60;;;;;;;;;;5070774;28;20050;-77
2022/11/27 14:25:38;;;;;;;0.32;0.32;;;;;;;;;;5071850;28;20032;-76
2022/11/27 14:28:24;;;;;;;0.65;0.65;;;;;;;;;;5071717;28;20029;-78
2022/11/27 14:30:50;;;;;;;1.10;0.82;;;;;;;;;;5070773;28;20035;-76
2022/11/27 14:33:21;;;;;;;0.32;0.32;;;;;;;;;;5070406;28;20384;-77
2022/11/27 14:35:52;;;;;;;0.63;0.63;;;;;;;;;;5094361;28;20127;-77
2022/11/27 14:38:18;;;;;;;1.33;0.30;;;;;;;;;;5049594;28;20021;-76
2022/11/27 14:40:43;;;;;;;0.20;0.20;;;;;;;;;;5054483;28;20029;-77
2022/11/27 14:43:10;;;;;;;0.52;0.52;;;;;;;;;;5074852;28;20039;-78
2022/11/27 14:45:36;;;;;;;0.68;0.60;;;;;;;;;;5052372;28;20079;-78
2022/11/27 14:48:01;;;;;;;0.88;0.60;;;;;;;;;;5071781;28;20080;-77
2022/11/27 14:50:27;;;;;;;0.63;0.57;;;;;;;;;;5067648;28;20147;-76